Time;durP1;ratioP1;P1;durP2;ratioP2;P2;SDS_P1;SDS_P2;PMS_P1;PMS_P2;Temp;Humidity;BMP_temperature;BMP_pressure;BME280_temperature;BME280_humidity;BME280_pressure;Samples;Min_cycle;Max_cycle;Signal;HPM_P1;HPM_P2
2023/10/10 00:02:28;;;;;;;20.60;4.70;;;15.40;99.20;;;;;;4947610;28;20023;-74
2023/10/10 00:05:11;;;;;;;17.90;4.50;;;15.40;99.30;;;;;;4949999;28;20027;-73
2023/10/10 00:07:37;;;;;;;20.20;4.97;;;15.30;99.40;;;;;;4949459;28;20118;-73
2023/10/10 00:10:13;;;;;;;15.93;3.92;;;15.30;99.50;;;;;;4947771;28;20118;-73
2023/10/10 00:12:48;;;;;;;13.85;5.43;;;15.20;99.50;;;;;;4947815;28;20106;-73
2023/10/10 00:15:23;;;;;;;18.35;4.70;;;15.20;99.60;;;;;;4951275;28;20136;-73
2023/10/10 00:17:48;;;;;;;17.70;5.30;;;15.20;99.70;;;;;;4947307;28;20034;-73
2023/10/10 00:20:24;;;;;;;18.25;4.40;;;15.20;99.80;;;;;;4949597;28;20482;-73
2023/10/10 00:22:58;;;;;;;20.75;5.68;;;15.20;99.90;;;;;;4945968;28;20035;-72
2023/10/10 00:25:30;;;;;;;16.98;4.85;;;15.20;99.90;;;;;;4950365;28;20023;-73
2023/10/10 00:28:04;;;;;;;11.77;3.60;;;15.10;99.90;;;;;;4947822;28;20115;-73
2023/10/10 00:30:33;;;;;;;20.02;5.20;;;15.10;99.90;;;;;;4948647;28;20027;-73
2023/10/10 00:33:04;;;;;;;14.45;4.57;;;15.10;99.90;;;;;;4947436;28;20027;-74
2023/10/10 00:35:38;;;;;;;17.80;5.40;;;15.10;99.90;;;;;;4946434;28;20035;-74
2023/10/10 00:38:07;;;;;;;17.65;5.43;;;15.00;99.90;;;;;;4968553;28;20036;-73
2023/10/10 00:40:40;;;;;;;20.73;5.10;;;15.00;99.90;;;;;;4951801;28;20027;-72
2023/10/10 00:43:24;;;;;;;17.08;6.15;;;15.00;99.90;;;;;;4950590;28;20038;-72
2023/10/10 00:45:57;;;;;;;19.35;4.88;;;15.00;99.90;;;;;;4954353;28;20024;-72
2023/10/10 00:48:29;;;;;;;16.80;4.80;;;15.00;99.90;;;;;;4948838;28;20054;-72
2023/10/10 00:51:11;;;;;;;17.98;4.88;;;14.90;99.90;;;;;;4950524;28;20667;-72
2023/10/10 00:54:17;;;;;;;12.52;4.57;;;14.90;99.90;;;;;;4949812;28;20090;-72
2023/10/10 00:56:54;;;;;;;17.65;5.10;;;14.90;99.90;;;;;;4945808;28;20031;-72
2023/10/10 00:59:35;;;;;;;20.00;4.90;;;14.80;99.90;;;;;;4949877;28;20114;-73
2023/10/10 01:02:04;;;;;;;14.15;4.75;;;14.80;99.90;;;;;;4953200;28;20031;-73
2023/10/10 01:04:48;;;;;;;20.83;5.32;;;14.80;99.90;;;;;;4942872;28;20043;-73
2023/10/10 01:07:26;;;;;;;15.50;4.85;;;14.80;99.90;;;;;;4948432;28;20475;-73
2023/10/10 01:12:35;;;;;;;17.95;5.20;;;14.70;99.90;;;;;;4952443;28;20024;-73
2023/10/10 01:15:15;;;;;;;21.25;4.85;;;14.70;99.90;;;;;;4948468;28;21003;-73
2023/10/10 01:17:49;;;;;;;16.23;5.22;;;14.60;99.90;;;;;;4953019;28;20419;-73
2023/10/10 01:20:33;;;;;;;18.27;5.28;;;14.60;99.90;;;;;;4950747;28;20743;-73
2023/10/10 01:22:59;;;;;;;17.27;4.25;;;14.60;99.90;;;;;;4950413;28;20034;-73
2023/10/10 01:25:40;;;;;;;21.50;4.63;;;14.50;99.90;;;;;;4949647;28;20106;-73
2023/10/10 01:31:04;;;;;;;18.13;4.75;;;14.50;99.90;;;;;;4948726;28;20118;-74
2023/10/10 01:33:47;;;;;;;17.13;4.95;;;14.50;99.90;;;;;;4949296;28;20019;-74
2023/10/10 01:36:23;;;;;;;17.33;5.27;;;14.40;99.90;;;;;;4952452;28;20602;-74
2023/10/10 01:38:59;;;;;;;14.05;5.22;;;14.40;99.90;;;;;;4947246;28;20281;-74
2023/10/10 01:41:31;;;;;;;16.77;6.28;;;14.40;99.90;;;;;;4946219;28;20054;-73
2023/10/10 01:44:12;;;;;;;17.50;5.57;;;14.40;99.90;;;;;;4953100;28;20046;-74
2023/10/10 01:46:40;;;;;;;16.08;5.22;;;14.30;99.90;;;;;;4952416;28;20115;-74
2023/10/10 01:49:30;;;;;;;14.57;4.43;;;14.40;99.90;;;;;;4951110;28;20482;-74
2023/10/10 01:52:01;;;;;;;12.25;4.07;;;14.30;99.90;;;;;;4950163;28;20043;-73
2023/10/10 01:54:40;;;;;;;13.32;4.07;;;14.30;99.90;;;;;;4950054;28;20430;-74
2023/10/10 01:57:07;;;;;;;21.02;4.63;;;14.20;99.90;;;;;;4951567;28;20028;-73
2023/10/10 01:59:37;;;;;;;19.60;4.40;;;14.20;99.90;;;;;;4951396;28;20062;-73
2023/10/10 02:02:10;;;;;;;12.15;4.57;;;14.20;99.90;;;;;;4950047;28;20054;-73
2023/10/10 02:04:36;;;;;;;12.60;3.88;;;14.20;99.90;;;;;;4950843;28;20728;-73
2023/10/10 02:07:22;;;;;;;14.25;3.92;;;14.20;99.90;;;;;;4949295;28;20035;-73
2023/10/10 02:12:35;;;;;;;14.57;4.57;;;14.10;99.90;;;;;;4953966;28;20030;-73
2023/10/10 02:15:01;;;;;;;20.52;4.95;;;14.10;99.90;;;;;;4948971;28;20150;-73
2023/10/10 02:17:29;;;;;;;12.70;4.28;;;14.10;99.90;;;;;;4948164;28;20044;-73
2023/10/10 02:20:18;;;;;;;19.48;5.15;;;14.10;99.90;;;;;;4953774;28;20023;-74
2023/10/10 02:23:08;;;;;;;20.13;5.22;;;14.10;99.90;;;;;;4942309;28;20067;-73
2023/10/10 02:25:37;;;;;;;19.77;4.80;;;14.10;99.90;;;;;;4955171;28;20054;-73
2023/10/10 02:28:05;;;;;;;15.40;5.32;;;14.00;99.90;;;;;;4949304;28;20090;-73
2023/10/10 02:30:37;;;;;;;17.75;5.28;;;14.00;99.90;;;;;;4950329;28;20118;-73
2023/10/10 02:33:55;;;;;;;15.32;4.70;;;14.00;99.90;;;;;;4950537;28;20027;-73
2023/10/10 02:36:01;;;;;;;17.55;4.18;;;14.00;99.90;;;;;;4951092;28;20130;-73
2023/10/10 02:38:36;;;;;;;16.92;4.95;;;13.90;99.90;;;;;;4946051;28;20592;-72
2023/10/10 02:46:40;;;;;;;12.70;4.40;;;13.90;99.90;;;;;;4950394;28;20031;-72
2023/10/10 02:49:22;;;;;;;10.98;4.22;;;13.80;99.90;;;;;;4952382;28;20023;-73
2023/10/10 02:51:49;;;;;;;14.10;4.97;;;13.80;99.90;;;;;;4949543;28;20024;-73
2023/10/10 02:54:35;;;;;;;17.90;4.32;;;13.80;99.90;;;;;;4950584;28;20031;-72
2023/10/10 03:02:49;;;;;;;14.57;4.72;;;13.80;99.90;;;;;;4974062;28;20029;-75
2023/10/10 03:05:16;;;;;;;14.98;3.95;;;13.70;99.90;;;;;;4971428;28;20030;-75
2023/10/10 03:07:51;;;;;;;17.90;4.78;;;13.70;99.90;;;;;;4968775;28;20110;-75
2023/10/10 03:10:22;;;;;;;18.27;4.85;;;13.70;99.90;;;;;;4968920;28;20023;-75
2023/10/10 03:12:53;;;;;;;13.65;4.30;;;13.70;99.90;;;;;;4969942;28;20030;-75
2023/10/10 03:15:28;;;;;;;18.02;4.30;;;13.70;99.90;;;;;;4970634;28;20027;-75
2023/10/10 03:23:34;;;;;;;14.80;5.60;;;13.60;99.90;;;;;;4966776;28;20031;-76
2023/10/10 05:23:49;;;;;;;15.47;4.97;;;13.00;99.90;;;;;;4976086;28;19920;-72
2023/10/10 05:25:52;;;;;;;12.45;4.20;;;12.90;99.90;;;;;;4975054;28;20700;-75
2023/10/10 05:28:29;;;;;;;12.73;4.03;;;12.90;99.90;;;;;;4972221;28;20037;-75
2023/10/10 05:30:55;;;;;;;15.80;5.05;;;12.90;99.90;;;;;;4969100;28;20035;-77
2023/10/10 05:33:26;;;;;;;17.42;4.90;;;12.80;99.90;;;;;;4969724;28;20028;-76
2023/10/10 05:35:57;;;;;;;14.75;5.82;;;12.80;99.90;;;;;;4971351;28;20387;-77
2023/10/10 05:38:23;;;;;;;15.20;4.88;;;12.80;99.90;;;;;;4970408;28;20027;-76
2023/10/10 05:40:56;;;;;;;27.15;5.55;;;12.70;99.90;;;;;;4968633;28;20026;-76
2023/10/10 05:43:33;;;;;;;21.45;5.95;;;12.80;99.90;;;;;;4970788;28;20030;-75
2023/10/10 05:46:05;;;;;;;15.48;4.93;;;12.70;99.90;;;;;;4967759;28;20035;-75
2023/10/10 05:48:35;;;;;;;16.58;5.63;;;12.70;99.90;;;;;;4969198;28;20035;-77
2023/10/10 05:51:10;;;;;;;22.75;7.40;;;12.70;99.90;;;;;;4971500;28;20428;-76
2023/10/10 05:53:36;;;;;;;15.15;5.55;;;12.70;99.90;;;;;;4967078;28;20042;-76
2023/10/10 05:56:15;;;;;;;16.85;4.97;;;12.70;99.90;;;;;;4968468;28;20034;-78
2023/10/10 05:58:44;;;;;;;22.10;6.53;;;12.60;99.90;;;;;;4967920;28;20485;-77
2023/10/10 06:01:14;;;;;;;16.48;5.32;;;12.70;99.90;;;;;;4962498;28;20083;-78
2023/10/10 06:03:45;;;;;;;24.00;6.10;;;12.70;99.90;;;;;;4964308;28;20023;-77
2023/10/10 06:06:12;;;;;;;24.80;5.78;;;12.70;99.90;;;;;;4966646;28;20023;-77
2023/10/10 06:08:42;;;;;;;22.63;6.13;;;12.70;99.90;;;;;;4970526;28;20563;-77
2023/10/10 06:11:13;;;;;;;20.42;5.75;;;12.70;99.90;;;;;;4969886;28;20557;-77
2023/10/10 06:13:43;;;;;;;23.00;6.05;;;12.70;99.90;;;;;;4967969;28;20034;-77
2023/10/10 06:16:14;;;;;;;20.63;6.15;;;12.80;99.90;;;;;;4967865;28;20076;-77
2023/10/10 06:18:50;;;;;;;19.90;6.90;;;12.80;99.90;;;;;;4969232;28;20023;-77
2023/10/10 06:21:18;;;;;;;19.90;5.75;;;12.80;99.90;;;;;;4970613;28;20026;-77
2023/10/10 06:23:44;;;;;;;30.85;7.05;;;12.80;99.90;;;;;;4968242;28;20035;-77
2023/10/10 06:26:12;;;;;;;27.38;6.90;;;12.90;99.90;;;;;;4969356;28;20085;-77
2023/10/10 06:28:47;;;;;;;23.13;6.32;;;12.90;99.90;;;;;;4970404;28;20046;-76
2023/10/10 06:31:19;;;;;;;18.63;7.25;;;12.90;99.90;;;;;;4966253;28;20019;-76
2023/10/10 06:33:57;;;;;;;25.50;7.22;;;13.00;99.90;;;;;;4967100;28;20026;-77
2023/10/10 06:36:37;;;;;;;21.55;7.03;;;13.00;99.90;;;;;;4982119;28;20130;-76
2023/10/10 06:41:40;;;;;;;33.53;7.45;;;13.10;99.90;;;;;;4968412;28;20032;-75
2023/10/10 06:44:13;;;;;;;31.73;7.07;;;13.10;99.90;;;;;;4971383;28;20061;-77
2023/10/10 06:46:40;;;;;;;27.73;8.00;;;13.20;99.90;;;;;;4966173;28;20062;-77
2023/10/10 06:49:06;;;;;;;23.58;7.15;;;13.30;99.90;;;;;;4968488;28;20034;-76
2023/10/10 06:51:41;;;;;;;33.08;7.75;;;13.30;99.90;;;;;;4969710;28;20080;-77
2023/10/10 06:54:19;;;;;;;32.22;8.25;;;13.40;99.90;;;;;;4961001;28;20048;-77
2023/10/10 06:57:04;;;;;;;24.02;5.82;;;13.40;99.90;;;;;;4966821;28;20031;-76
2023/10/10 06:59:30;;;;;;;23.42;6.15;;;13.50;99.90;;;;;;4966795;28;20089;-76
2023/10/10 07:01:59;;;;;;;22.40;5.93;;;13.60;99.90;;;;;;4963547;28;20830;-77
2023/10/10 07:04:27;;;;;;;20.15;5.18;;;13.60;99.90;;;;;;4967451;28;20073;-76
2023/10/10 07:07:00;;;;;;;19.50;4.97;;;13.70;99.90;;;;;;4968382;28;20026;-76
2023/10/10 07:09:29;;;;;;;22.67;6.33;;;13.70;99.90;;;;;;4966775;28;20057;-76
2023/10/10 07:12:15;;;;;;;20.92;4.55;;;13.80;99.90;;;;;;4965817;28;20795;-76
2023/10/10 07:14:46;;;;;;;15.05;5.35;;;13.80;99.90;;;;;;4966099;28;20026;-76
2023/10/10 07:17:16;;;;;;;16.63;5.80;;;13.90;99.90;;;;;;4980784;28;20045;-76
2023/10/10 07:22:33;;;;;;;16.27;5.45;;;14.00;99.90;;;;;;4965256;28;20371;-76
2023/10/10 07:25:24;;;;;;;16.75;5.65;;;14.10;99.90;;;;;;4963617;28;20512;-76
2023/10/10 07:27:56;;;;;;;23.13;7.40;;;14.10;99.90;;;;;;4965720;28;20410;-76
2023/10/10 07:30:34;;;;;;;18.38;5.50;;;14.20;99.90;;;;;;4965327;28;20045;-76
2023/10/10 07:33:03;;;;;;;17.27;5.75;;;14.20;99.90;;;;;;4965302;28;20027;-76
2023/10/10 07:35:35;;;;;;;13.65;4.82;;;14.20;99.90;;;;;;4963742;28;20439;-76
2023/10/10 07:38:07;;;;;;;21.67;5.82;;;14.30;99.90;;;;;;4965560;28;20034;-76
2023/10/10 07:40:38;;;;;;;19.42;6.57;;;14.30;99.90;;;;;;4963027;28;20050;-77
2023/10/10 07:43:07;;;;;;;22.38;6.82;;;14.40;99.90;;;;;;4962906;28;20049;-76
2023/10/10 07:50:49;;;;;;;21.35;7.18;;;14.60;99.90;;;;;;4967405;28;20149;-76
2023/10/10 07:53:18;;;;;;;18.30;5.65;;;14.60;99.90;;;;;;4965806;28;20022;-78
2023/10/10 07:56:02;;;;;;;21.95;7.22;;;14.70;99.90;;;;;;4969620;28;20030;-76
2023/10/10 07:58:43;;;;;;;;;;;14.70;99.90;;;;;;4968604;28;20039;-76
2023/10/10 08:01:21;;;;;;;16.02;5.80;;;14.80;99.90;;;;;;4964014;28;19918;-76
2023/10/10 08:03:49;;;;;;;18.85;6.00;;;14.90;99.90;;;;;;4965654;28;20110;-76
2023/10/10 08:06:21;;;;;;;18.15;5.63;;;14.90;99.90;;;;;;4967432;28;20038;-77
2023/10/10 08:08:49;;;;;;;18.33;6.00;;;15.00;99.90;;;;;;4964280;28;20572;-77
2023/10/10 08:11:35;;;;;;;17.85;6.53;;;15.00;99.90;;;;;;4965879;28;20035;-77
2023/10/10 08:14:08;;;;;;;28.25;6.15;;;15.10;99.90;;;;;;4967578;28;20369;-77
2023/10/10 08:16:39;;;;;;;17.83;6.35;;;15.20;99.90;;;;;;4966265;28;20109;-77
2023/10/10 08:19:08;;;;;;;19.30;5.63;;;15.20;99.90;;;;;;4966696;28;20034;-77
2023/10/10 08:21:38;;;;;;;22.17;5.88;;;15.20;99.90;;;;;;4968260;28;20030;-77
2023/10/10 08:24:15;;;;;;;23.23;6.25;;;15.30;99.90;;;;;;4963698;28;20042;-77
2023/10/10 08:26:56;;;;;;;21.02;7.13;;;15.30;99.90;;;;;;4966041;28;20530;-77
2023/10/10 08:29:30;;;;;;;18.65;6.15;;;15.40;99.90;;;;;;4968229;28;20035;-77
2023/10/10 08:31:56;;;;;;;19.95;6.15;;;15.40;99.90;;;;;;4958402;28;20515;-77
2023/10/10 08:34:24;;;;;;;24.05;6.82;;;15.50;99.90;;;;;;4966384;28;20034;-77
2023/10/10 08:36:51;;;;;;;24.25;5.90;;;15.60;99.90;;;;;;4962892;28;20038;-77
2023/10/10 08:41:43;;;;;;;21.55;6.50;;;15.70;99.90;;;;;;4965595;28;20114;-77
2023/10/10 08:44:17;;;;;;;18.88;6.72;;;15.70;99.90;;;;;;4966087;28;20105;-77
2023/10/10 08:46:59;;;;;;;17.95;5.78;;;15.90;99.90;;;;;;4968622;28;20051;-77
2023/10/10 08:49:40;;;;;;;20.92;6.40;;;15.90;99.90;;;;;;4967019;28;20502;-77
2023/10/10 08:52:09;;;;;;;17.95;6.10;;;16.00;99.90;;;;;;4966916;28;20031;-77
2023/10/10 08:54:42;;;;;;;21.33;6.40;;;16.20;99.90;;;;;;4965081;28;20038;-77
2023/10/10 08:57:11;;;;;;;17.77;7.37;;;16.20;99.90;;;;;;5146124;23;20039;-77
2023/10/10 08:59:42;;;;;;;24.70;6.88;;;16.30;99.90;;;;;;4978230;28;20038;-76
2023/10/10 09:02:33;;;;;;;19.75;6.05;;;16.40;99.90;;;;;;4977535;28;20401;-76
2023/10/10 09:04:53;;;;;;;23.20;6.13;;;16.50;99.90;;;;;;4977827;28;20050;-75
2023/10/10 09:10:14;;;;;;;24.98;6.95;;;16.80;99.90;;;;;;4989594;28;20046;-76
2023/10/10 09:12:58;;;;;;;24.23;6.88;;;16.90;99.90;;;;;;4996502;28;20029;-76
2023/10/10 09:15:24;;;;;;;20.88;6.70;;;17.00;99.90;;;;;;4995861;28;20049;-75
2023/10/10 09:18:10;;;;;;;24.65;6.38;;;17.20;99.90;;;;;;4997626;28;20027;-76
2023/10/10 09:20:39;;;;;;;21.95;6.68;;;17.30;99.90;;;;;;4999471;28;20030;-75
2023/10/10 09:23:26;;;;;;;17.95;6.25;;;17.50;99.90;;;;;;4997004;28;20092;-76
2023/10/10 09:26:12;;;;;;;26.38;7.38;;;17.70;99.60;;;;;;4996618;28;20018;-75
2023/10/10 09:29:15;;;;;;;23.98;6.90;;;17.80;99.30;;;;;;4997654;28;20469;-75
2023/10/10 09:31:45;;;;;;;19.85;5.68;;;17.90;99.20;;;;;;4999711;28;20362;-76
2023/10/10 09:34:12;;;;;;;24.25;6.60;;;18.10;99.00;;;;;;4996311;28;20049;-76
2023/10/10 09:36:50;;;;;;;22.58;6.03;;;18.20;98.80;;;;;;4995658;28;20401;-76
2023/10/10 09:39:42;;;;;;;21.98;5.97;;;18.30;98.70;;;;;;4996222;28;20094;-76
2023/10/10 09:44:53;;;;;;;;;;;;;;;;;;;;;
2023/10/10 09:47:52;;;;;;;21.73;5.93;;;18.60;98.30;;;;;;4996176;28;20088;-76
2023/10/10 09:53:19;;;;;;;22.33;6.40;;;18.80;98.30;;;;;;5000120;28;20066;-76
2023/10/10 09:55:48;;;;;;;28.08;6.03;;;18.90;98.00;;;;;;4986472;28;20030;-76
2023/10/10 10:05:58;;;;;;;14.23;5.53;;;19.20;97.50;;;;;;4989940;28;20054;-76
2023/10/10 10:08:37;;;;;;;17.98;4.82;;;19.30;97.40;;;;;;4993307;28;20073;-77
2023/10/10 10:11:35;;;;;;;20.92;5.10;;;19.40;97.30;;;;;;4999035;28;20022;-77
2023/10/10 10:14:23;;;;;;;23.23;5.25;;;19.50;97.10;;;;;;4999655;28;20118;-74
2023/10/10 10:16:59;;;;;;;21.40;4.57;;;19.50;96.90;;;;;;4999645;28;20030;-77
2023/10/10 10:19:28;;;;;;;18.10;5.57;;;19.60;96.90;;;;;;4997485;28;20026;-76
2023/10/10 10:22:08;;;;;;;15.05;5.95;;;19.60;96.90;;;;;;4997363;28;20029;-76
2023/10/10 10:25:10;;;;;;;25.38;5.13;;;19.60;97.00;;;;;;4997423;28;20023;-76
2023/10/10 10:27:39;;;;;;;12.00;5.20;;;19.70;97.20;;;;;;4998491;28;20446;-76
2023/10/10 10:32:47;;;;;;;16.75;5.55;;;19.80;96.70;;;;;;4997803;28;20022;-74
2023/10/10 10:35:56;;;;;;;20.23;5.13;;;19.80;96.70;;;;;;4996586;28;20060;-77
2023/10/10 10:38:26;;;;;;;16.30;5.57;;;19.90;96.80;;;;;;4981385;28;20405;-75
2023/10/10 10:41:04;;;;;;;23.63;6.65;;;19.90;97.00;;;;;;4978562;28;20081;-77
2023/10/10 10:43:42;;;;;;;17.92;5.45;;;20.00;97.10;;;;;;4985919;28;20025;-77
2023/10/10 10:46:27;;;;;;;18.33;5.82;;;20.00;97.20;;;;;;4997398;28;20027;-77
2023/10/10 10:49:05;;;;;;;13.25;4.53;;;20.00;97.20;;;;;;4996569;28;20054;-77
2023/10/10 10:51:44;;;;;;;23.80;5.28;;;20.10;96.80;;;;;;4997073;28;20432;-77
2023/10/10 10:54:35;;;;;;;20.48;4.85;;;20.20;96.90;;;;;;4997631;28;20499;-76
2023/10/10 10:57:27;;;;;;;20.02;5.13;;;20.20;96.90;;;;;;4999409;28;20076;-76
2023/10/10 11:00:19;;;;;;;22.48;5.50;;;20.30;96.90;;;;;;5000024;28;20034;-77
2023/10/10 11:02:50;;;;;;;14.70;4.60;;;20.40;96.90;;;;;;4997312;28;20038;-77
2023/10/10 11:05:26;;;;;;;26.20;5.60;;;20.40;97.00;;;;;;4996727;28;20018;-77
2023/10/10 11:08:11;;;;;;;18.48;5.60;;;20.40;97.10;;;;;;4992478;28;20481;-77
2023/10/10 11:10:45;;;;;;;21.90;5.95;;;20.60;96.80;;;;;;4996111;28;20385;-77
2023/10/10 11:13:28;;;;;;;27.88;6.53;;;20.60;96.70;;;;;;4997504;28;20053;-76
2023/10/10 11:16:10;;;;;;;17.92;5.28;;;20.60;96.70;;;;;;4996884;28;20050;-75
2023/10/10 11:18:39;;;;;;;29.48;5.75;;;20.70;96.60;;;;;;4997332;28;20105;-76
2023/10/10 11:21:08;;;;;;;28.90;6.18;;;20.70;96.50;;;;;;4995137;28;20030;-77
2023/10/10 11:23:41;;;;;;;23.00;5.03;;;20.70;96.40;;;;;;4997916;28;20033;-77
2023/10/10 11:26:14;;;;;;;15.63;4.57;;;20.80;96.50;;;;;;4998264;28;20052;-76
2023/10/10 11:28:47;;;;;;;20.73;5.17;;;20.80;96.40;;;;;;4993944;28;20027;-77
2023/10/10 11:31:25;;;;;;;17.48;4.90;;;20.90;96.30;;;;;;4994167;28;20240;-76
2023/10/10 11:33:55;;;;;;;18.52;5.45;;;21.00;96.30;;;;;;4995060;28;20041;-78
2023/10/10 11:36:51;;;;;;;21.50;5.13;;;21.10;95.80;;;;;;4995213;28;20048;-76
2023/10/10 11:39:33;;;;;;;16.88;4.95;;;21.20;95.50;;;;;;4995094;28;20444;-76
2023/10/10 11:42:04;;;;;;;17.00;5.28;;;21.30;95.30;;;;;;4994690;28;20022;-76
2023/10/10 11:44:33;;;;;;;15.90;4.13;;;21.40;95.20;;;;;;4995231;28;20069;-77
2023/10/10 11:47:07;;;;;;;19.17;4.55;;;21.40;95.00;;;;;;4986502;28;20022;-75
2023/10/10 11:49:33;;;;;;;17.55;5.90;;;21.40;94.90;;;;;;4985865;28;20022;-76
2023/10/10 11:51:59;;;;;;;17.42;4.85;;;21.50;94.70;;;;;;4985724;28;20029;-77
2023/10/10 11:54:28;;;;;;;22.13;4.75;;;21.50;94.60;;;;;;4993008;28;20496;-76
2023/10/10 11:56:54;;;;;;;19.25;4.10;;;21.60;94.10;;;;;;4992148;28;20061;-75
2023/10/10 11:59:26;;;;;;;16.60;4.32;;;21.70;93.50;;;;;;4992167;28;20113;-76
2023/10/10 12:02:07;;;;;;;18.92;5.28;;;21.70;93.40;;;;;;4993916;28;20038;-75
2023/10/10 12:04:33;;;;;;;18.77;4.95;;;21.70;93.40;;;;;;4993578;28;20035;-76
2023/10/10 12:07:04;;;;;;;18.25;4.72;;;21.80;92.70;;;;;;4993520;28;20050;-74
2023/10/10 12:09:38;;;;;;;16.58;4.13;;;21.80;92.70;;;;;;4991460;28;20022;-76
2023/10/10 12:12:07;;;;;;;17.08;4.20;;;21.90;92.40;;;;;;4993601;28;20026;-76
2023/10/10 12:14:32;;;;;;;16.50;5.20;;;21.90;92.20;;;;;;4993879;28;20117;-76
2023/10/10 12:17:07;;;;;;;13.25;4.30;;;21.90;92.10;;;;;;4990260;28;20058;-77
2023/10/10 12:19:43;;;;;;;13.20;4.35;;;21.90;91.90;;;;;;4991321;28;20026;-76
2023/10/10 12:22:13;;;;;;;15.32;4.18;;;22.10;91.60;;;;;;4994006;28;20022;-76
2023/10/10 12:24:39;;;;;;;14.50;4.32;;;22.10;91.20;;;;;;4993435;28;20118;-77
2023/10/10 12:27:12;;;;;;;18.27;4.72;;;22.20;90.20;;;;;;4992357;28;20449;-77
2023/10/10 12:29:41;;;;;;;9.35;3.67;;;22.20;90.10;;;;;;4992020;28;20113;-76
2023/10/10 12:32:22;;;;;;;15.32;4.43;;;22.20;90.30;;;;;;4993000;28;20436;-75
2023/10/10 12:34:50;;;;;;;13.07;3.88;;;22.20;90.00;;;;;;4993491;28;20160;-75
2023/10/10 12:37:23;;;;;;;17.33;4.68;;;22.30;90.10;;;;;;4996154;28;20030;-74
2023/10/10 12:39:51;;;;;;;17.15;4.05;;;22.30;90.30;;;;;;4988533;28;20030;-76
2023/10/10 12:42:17;;;;;;;18.65;3.80;;;22.40;90.30;;;;;;5006702;28;20029;-75
2023/10/10 12:44:47;;;;;;;11.02;3.72;;;22.50;90.00;;;;;;5010355;28;20026;-75
2023/10/10 12:47:17;;;;;;;14.70;4.38;;;22.50;89.80;;;;;;4994008;28;20050;-76
2023/10/10 12:49:44;;;;;;;20.35;6.03;;;22.60;88.40;;;;;;4992430;28;20026;-75
2023/10/10 12:52:16;;;;;;;10.52;3.90;;;22.70;88.10;;;;;;4994625;28;20101;-76
2023/10/10 12:54:46;;;;;;;11.60;3.42;;;22.70;87.40;;;;;;4993187;28;20039;-77
2023/10/10 12:57:14;;;;;;;11.55;3.53;;;22.70;86.90;;;;;;4994460;28;20026;-76
2023/10/10 12:59:46;;;;;;;12.13;3.78;;;22.80;86.30;;;;;;4994753;28;20032;-76
2023/10/10 13:02:15;;;;;;;12.20;4.40;;;22.80;86.60;;;;;;4999925;28;20145;-76
2023/10/10 13:04:45;;;;;;;12.40;4.43;;;22.80;86.40;;;;;;5001133;28;20448;-75
2023/10/10 13:07:12;;;;;;;12.27;4.57;;;22.90;84.90;;;;;;4999647;28;20061;-74
2023/10/10 13:09:42;;;;;;;17.23;3.70;;;22.90;84.60;;;;;;4994487;28;20423;-76
2023/10/10 13:12:09;;;;;;;11.77;4.13;;;22.90;84.30;;;;;;4994964;28;20088;-76
2023/10/10 13:14:36;;;;;;;15.13;4.85;;;23.00;84.30;;;;;;4996402;28;20029;-76
2023/10/10 13:19:49;;;;;;;13.48;4.15;;;23.00;83.40;;;;;;4997016;28;20400;-74
2023/10/10 13:22:20;;;;;;;14.93;4.20;;;23.00;83.10;;;;;;4993546;28;20050;-75
2023/10/10 13:24:48;;;;;;;18.55;4.25;;;23.00;83.30;;;;;;4995858;28;20030;-75
2023/10/10 13:27:14;;;;;;;12.95;3.70;;;23.10;83.00;;;;;;4983016;28;20035;-75
2023/10/10 13:29:45;;;;;;;11.10;4.20;;;23.00;83.30;;;;;;4973182;28;20019;-76
2023/10/10 13:32:11;;;;;;;17.23;4.55;;;23.00;83.00;;;;;;4976302;28;20054;-75
2023/10/10 13:34:39;;;;;;;12.50;5.00;;;23.00;82.80;;;;;;4975812;28;20081;-76
2023/10/10 13:37:11;;;;;;;13.52;4.63;;;23.00;82.50;;;;;;4992466;28;20026;-76
2023/10/10 13:39:54;;;;;;;11.93;4.07;;;23.00;81.40;;;;;;4993241;28;20039;-76
2023/10/10 13:42:23;;;;;;;13.17;4.77;;;23.00;81.40;;;;;;4996756;28;20023;-76
2023/10/10 13:45:01;;;;;;;12.35;4.40;;;23.00;81.40;;;;;;4996207;28;20343;-76
2023/10/10 13:47:30;;;;;;;14.02;4.65;;;23.00;80.80;;;;;;4995057;28;20436;-76
2023/10/10 13:50:28;;;;;;;17.65;4.72;;;22.90;80.70;;;;;;4996333;28;20019;-76
2023/10/10 13:52:42;;;;;;;17.10;4.68;;;22.90;81.00;;;;;;4995026;28;20433;-76
2023/10/10 13:55:10;;;;;;;18.35;5.55;;;22.90;81.00;;;;;;4976790;28;20097;-76
2023/10/10 13:57:36;;;;;;;17.80;5.85;;;22.90;80.70;;;;;;4977357;28;20049;-75
2023/10/10 14:00:19;;;;;;;19.33;5.63;;;23.00;80.70;;;;;;4998058;28;20121;-75
2023/10/10 14:02:45;;;;;;;11.18;4.57;;;22.90;80.70;;;;;;4997163;28;20037;-75
2023/10/10 14:05:15;;;;;;;16.30;5.85;;;22.90;80.70;;;;;;4998095;28;20027;-75
2023/10/10 14:07:46;;;;;;;24.80;8.35;;;22.90;80.90;;;;;;4998802;28;20024;-75
2023/10/10 14:10:21;;;;;;;19.45;7.25;;;22.90;81.10;;;;;;4997749;28;20078;-75
2023/10/10 14:12:47;;;;;;;14.77;5.65;;;22.90;81.50;;;;;;4996111;28;20026;-75
2023/10/10 14:15:21;;;;;;;16.77;5.03;;;22.90;82.20;;;;;;4996975;28;20559;-75
2023/10/10 14:17:47;;;;;;;19.45;5.55;;;22.80;82.80;;;;;;4996508;28;20027;-77
2023/10/10 14:20:21;;;;;;;12.27;4.18;;;22.80;82.70;;;;;;4995758;28;20077;-76
2023/10/10 14:22:49;;;;;;;13.25;4.50;;;22.80;83.20;;;;;;4996755;28;20030;-76
2023/10/10 14:25:16;;;;;;;12.98;4.82;;;22.80;83.30;;;;;;4995497;28;20438;-76
2023/10/10 14:27:49;;;;;;;14.82;4.28;;;22.80;83.60;;;;;;4998328;28;20031;-75
2023/10/10 14:30:21;;;;;;;12.27;4.22;;;22.70;83.90;;;;;;4998863;28;20041;-76
2023/10/10 14:32:58;;;;;;;12.02;3.63;;;22.70;84.00;;;;;;4999047;28;20027;-76
2023/10/10 14:35:30;;;;;;;28.30;4.63;;;22.70;84.80;;;;;;4998680;28;20084;-76
2023/10/10 14:38:00;;;;;;;14.50;3.83;;;22.70;85.00;;;;;;5000612;28;20029;-76
2023/10/10 14:40:29;;;;;;;15.90;4.60;;;22.70;85.20;;;;;;4994431;28;20030;-75
2023/10/10 14:42:57;;;;;;;15.38;4.45;;;22.60;84.90;;;;;;4994777;28;20038;-77
2023/10/10 14:45:28;;;;;;;13.85;4.15;;;22.60;84.90;;;;;;4993211;28;20031;-74
2023/10/10 14:47:56;;;;;;;11.10;3.55;;;22.60;85.10;;;;;;4994898;28;20385;-75
2023/10/10 14:50:23;;;;;;;17.17;3.72;;;22.60;86.00;;;;;;4994946;28;20022;-75
2023/10/10 14:52:59;;;;;;;13.25;4.13;;;22.50;85.70;;;;;;4993635;28;20440;-75
2023/10/10 14:55:25;;;;;;;14.15;4.00;;;22.50;86.10;;;;;;4994373;28;20512;-75
2023/10/10 14:57:55;;;;;;;12.93;4.68;;;22.50;85.90;;;;;;4994307;28;20026;-74
2023/10/10 15:00:28;;;;;;;14.90;4.13;;;22.40;86.00;;;;;;4993922;28;20473;-76
2023/10/10 15:02:55;;;;;;;12.25;3.45;;;22.40;86.30;;;;;;4993131;28;20382;-75
2023/10/10 15:05:26;;;;;;;16.50;4.25;;;22.30;86.40;;;;;;4995713;28;20027;-74
2023/10/10 15:07:55;;;;;;;14.38;4.25;;;22.30;86.30;;;;;;4994479;28;20026;-74
2023/10/10 15:10:28;;;;;;;10.57;3.72;;;22.30;86.30;;;;;;4994498;28;20070;-73
2023/10/10 15:12:59;;;;;;;15.48;4.13;;;22.30;86.30;;;;;;4995485;28;20105;-74
2023/10/10 15:15:25;;;;;;;13.95;4.22;;;22.30;86.60;;;;;;4994318;28;20043;-74
2023/10/10 15:17:57;;;;;;;12.95;4.18;;;22.20;86.80;;;;;;4995829;28;20035;-74
2023/10/10 15:20:29;;;;;;;15.60;4.50;;;22.20;86.80;;;;;;4993675;28;20057;-74
2023/10/10 15:22:55;;;;;;;14.57;4.35;;;22.20;86.90;;;;;;4997868;28;20034;-73
2023/10/10 15:25:27;;;;;;;10.55;3.35;;;22.10;86.70;;;;;;4998441;28;20022;-74
2023/10/10 15:27:57;;;;;;;19.63;4.38;;;22.10;86.50;;;;;;4999466;28;20018;-74
2023/10/10 15:30:26;;;;;;;15.13;4.85;;;22.10;86.60;;;;;;4997064;28;20023;-74
2023/10/10 15:32:57;;;;;;;13.52;4.68;;;22.00;87.20;;;;;;4998454;28;20029;-74
2023/10/10 15:35:41;;;;;;;14.48;3.85;;;22.00;86.90;;;;;;4994722;28;20084;-73
2023/10/10 15:38:11;;;;;;;9.63;3.55;;;21.90;87.40;;;;;;4993644;28;20030;-74
2023/10/10 15:40:40;;;;;;;10.82;3.92;;;21.90;87.70;;;;;;4993179;28;20026;-75
2023/10/10 15:43:11;;;;;;;14.30;3.88;;;21.90;88.00;;;;;;4996013;28;20030;-74
2023/10/10 15:45:38;;;;;;;12.38;4.30;;;21.80;88.20;;;;;;4994417;28;20106;-75
2023/10/10 15:48:21;;;;;;;13.70;4.78;;;21.80;88.50;;;;;;4993728;28;20501;-74
2023/10/10 15:50:53;;;;;;;15.10;5.47;;;21.70;89.00;;;;;;4992763;28;20018;-72
2023/10/10 15:53:26;;;;;;;19.25;5.88;;;21.70;89.40;;;;;;4985844;28;20029;-73
2023/10/10 15:56:11;;;;;;;15.27;4.68;;;21.70;90.20;;;;;;4985682;28;20015;-71
2023/10/10 15:58:43;;;;;;;17.98;5.40;;;21.60;90.40;;;;;;4984195;28;20031;-72
2023/10/10 16:01:27;;;;;;;15.30;4.43;;;21.60;90.70;;;;;;4988101;28;20068;-72
2023/10/10 16:04:17;;;;;;;17.30;5.35;;;21.60;90.70;;;;;;4985693;28;20113;-74
2023/10/10 16:06:46;;;;;;;13.13;4.95;;;21.50;91.00;;;;;;4984768;28;20146;-73
2023/10/10 16:09:31;;;;;;;13.25;4.72;;;21.50;90.80;;;;;;4987255;28;20030;-72